Time;durP1;ratioP1;P1;durP2;ratioP2;P2;SDS_P1;SDS_P2;PMS_P1;PMS_P2;Temp;Humidity;BMP_temperature;BMP_pressure;BME280_temperature;BME280_humidity;BME280_pressure;Samples;Min_cycle;Max_cycle;Signal;HPM_P1;HPM_P2
2021/12/25 00:02:08;;;;;;;2.33;1.50;;;;;;;7.17;71.75;97745.16;5085173;28;20040;-66
2021/12/25 00:04:41;;;;;;;1.65;1.13;;;;;;;8.09;72.10;97887.47;5085158;28;20041;-66
2021/12/25 00:07:13;;;;;;;2.15;1.20;;;;;;;8.08;72.14;97890.22;5085031;28;20102;-67
2021/12/25 00:09:45;;;;;;;1.42;1.00;;;;;;;8.07;72.42;97877.97;5085024;28;20239;-68
2021/12/25 00:12:18;;;;;;;1.50;1.10;;;;;;;8.03;72.65;97872.91;5085041;28;20068;-65
2021/12/25 00:14:50;;;;;;;2.13;1.13;;;;;;;8.01;72.71;97874.78;5084898;28;20044;-66
2021/12/25 00:17:26;;;;;;;1.75;1.20;;;;;;;8.00;72.79;97891.56;5085189;28;20044;-67
2021/12/25 00:19:58;;;;;;;1.85;1.10;;;;;;;7.80;72.57;97862.22;5084782;28;20052;-66
2021/12/25 00:22:31;;;;;;;2.08;1.27;;;;;;;8.01;72.63;97901.19;5085133;28;20250;-66
2021/12/25 00:25:03;;;;;;;1.67;1.10;;;;;;;7.98;72.60;97917.22;5084920;28;20097;-66
2021/12/25 00:27:45;;;;;;;2.55;1.23;;;;;;;7.72;72.98;97886.47;5085093;28;20086;-66
2021/12/25 00:30:35;;;;;;;2.28;1.25;;;;;;;7.40;73.09;97827.13;5085097;28;20044;-67
2021/12/25 00:33:30;;;;;;;2.17;1.10;;;;;;;7.90;73.45;97911.59;5085005;28;20041;-67
2021/12/25 00:36:01;;;;;;;1.70;1.10;;;;;;;7.88;73.90;97920.56;5084548;28;20045;-66
2021/12/25 00:38:36;;;;;;;1.75;1.30;;;;;;;7.85;73.98;97910.22;5084631;28;20044;-66
2021/12/25 00:41:09;;;;;;;2.08;1.30;;;;;;;7.83;74.32;97907.69;5084845;28;20048;-67
2021/12/25 00:43:41;;;;;;;2.03;1.27;;;;;;;7.81;74.54;97900.84;5084732;28;20041;-67
2021/12/25 00:46:14;;;;;;;2.17;1.35;;;;;;;7.80;74.47;97909.69;5084700;28;20189;-68
2021/12/25 00:48:47;;;;;;;2.42;1.63;;;;;;;7.78;74.70;97901.03;5087629;28;20044;-67
2021/12/25 00:51:20;;;;;;;1.50;1.02;;;;;;;7.11;74.47;97813.22;5088721;28;20054;-67
2021/12/25 00:53:52;;;;;;;2.55;1.60;;;;;;;7.75;74.55;97932.88;5088454;28;20086;-67
2021/12/25 00:56:24;;;;;;;1.80;1.20;;;;;;;7.71;74.64;97919.06;5088609;28;20102;-67
2021/12/25 00:58:57;;;;;;;1.77;1.23;;;;;;;7.73;74.56;97929.50;5088541;28;20036;-67
2021/12/25 01:01:29;;;;;;;2.15;1.40;;;;;;;7.73;74.56;97925.06;5088387;28;20048;-68
2021/12/25 01:04:03;;;;;;;2.60;1.70;;;;;;;7.73;74.42;97926.88;5088446;28;20089;-67
2021/12/25 01:06:35;;;;;;;3.00;1.63;;;;;;;7.73;74.53;97933.00;5088261;28;20082;-67
2021/12/25 01:09:08;;;;;;;3.28;1.35;;;;;;;7.73;74.57;97921.59;5088164;28;20082;-67
2021/12/25 01:11:42;;;;;;;1.60;1.20;;;;;;;7.76;74.51;97921.38;5088298;28;20247;-68
2021/12/25 01:14:24;;;;;;;1.67;1.20;;;;;;;6.19;74.58;97669.09;5087521;28;20040;-67
2021/12/25 01:17:16;;;;;;;1.60;1.20;;;;;;;6.97;74.49;97798.31;5087924;28;20040;-67
2021/12/25 01:20:13;;;;;;;1.70;1.10;;;;;;;7.74;74.63;97939.09;5087659;28;20266;-67
2021/12/25 01:31:43;;;;;;;1.52;1.05;;;;;;;7.66;75.47;97948.38;5144395;27;20127;-67
2021/12/25 01:37:15;;;;;;;1.98;1.25;;;;;;;7.63;75.80;97943.28;5123073;28;20063;-67
2021/12/25 01:39:55;;;;;;;2.10;1.40;;;;;;;7.64;75.80;97944.13;5123025;28;20044;-66
2021/12/25 01:48:07;;;;;;;2.38;1.55;;;;;;;7.54;76.50;97943.91;5122874;28;20097;-67
2021/12/25 01:50:36;;;;;;;1.88;1.30;;;;;;;7.49;76.50;97946.00;5123840;28;20043;-67
2021/12/25 01:53:06;;;;;;;3.22;1.30;;;;;;;6.13;77.02;97719.44;5123089;28;20040;-67
2021/12/25 01:55:36;;;;;;;1.95;1.33;;;;;;;7.46;77.35;97940.91;5123032;28;20039;-67
2021/12/25 01:58:07;;;;;;;2.35;1.20;;;;;;;7.45;77.17;97936.59;5123004;28;20051;-67
2021/12/25 02:00:40;;;;;;;1.85;1.25;;;;;;;7.44;77.30;97932.25;5122893;28;20066;-67
2021/12/25 02:03:17;;;;;;;2.28;1.63;;;;;;;7.40;77.40;97938.69;5122556;28;20215;-67
2021/12/25 02:05:50;;;;;;;2.13;1.25;;;;;;;6.37;77.38;97788.94;5122735;28;20040;-67
2021/12/25 02:08:23;;;;;;;2.10;1.38;;;;;;;7.44;77.13;97936.69;5122716;28;20102;-67
2021/12/25 02:10:56;;;;;;;2.03;1.55;;;;;;;7.16;77.00;97885.72;5122716;28;20311;-65
2021/12/25 02:13:28;;;;;;;2.40;1.52;;;;;;;7.51;76.78;97937.97;5122756;28;20208;-68
2021/12/25 02:16:06;;;;;;;2.95;1.40;;;;;;;5.77;76.67;97656.88;5122709;28;20040;-67
2021/12/25 02:18:57;;;;;;;2.22;1.50;;;;;;;7.49;77.08;97939.88;5122660;28;20040;-68
2021/12/25 02:21:36;;;;;;;8.63;6.57;;;;;;;7.49;77.22;97935.44;5108204;28;20050;-68
2021/12/25 02:24:11;;;;;;;3.00;1.90;;;;;;;6.22;76.97;97718.88;5122522;28;20066;-67
2021/12/25 02:26:45;;;;;;;2.63;1.48;;;;;;;7.48;77.24;97933.75;5122564;28;20288;-68
2021/12/25 02:29:18;;;;;;;2.33;1.20;;;;;;;6.09;77.49;97718.78;5122290;28;20040;-67
2021/12/25 02:31:50;;;;;;;2.20;1.27;;;;;;;7.47;77.44;97932.06;5122295;28;20051;-67
2021/12/25 02:34:24;;;;;;;1.90;1.20;;;;;;;7.43;77.56;97935.84;5104347;28;20047;-67
2021/12/25 02:36:58;;;;;;;2.03;1.42;;;;;;;6.10;77.48;97727.53;5122060;28;20040;-68
2021/12/25 02:39:30;;;;;;;2.30;1.42;;;;;;;7.46;77.39;97932.16;5122272;28;20039;-68
2021/12/25 02:42:03;;;;;;;1.60;1.10;;;;;;;5.20;76.94;97572.00;5113697;28;20044;-69
2021/12/25 02:44:36;;;;;;;2.15;1.30;;;;;;;7.48;76.90;97946.09;5108580;28;20082;-67
2021/12/25 02:47:16;;;;;;;2.40;1.27;;;;;;;7.49;77.21;97940.72;5108245;28;20055;-68
2021/12/25 02:49:50;;;;;;;1.95;1.30;;;;;;;7.46;77.51;97955.88;5108151;28;20055;-68
2021/12/25 02:52:24;;;;;;;2.17;1.40;;;;;;;2.82;76.89;97188.72;5108397;28;20047;-68
2021/12/25 02:54:56;;;;;;;2.25;1.33;;;;;;;7.48;77.14;97952.19;5108397;28;20059;-68
2021/12/25 02:57:28;;;;;;;2.50;1.40;;;;;;;7.23;76.85;97910.75;5108067;28;20239;-68
2021/12/25 03:00:01;;;;;;;1.85;1.20;;;;;;;7.49;77.06;97956.53;5108183;28;20040;-68
2021/12/25 03:02:33;;;;;;;2.70;1.35;;;;;;;7.50;76.73;97954.75;5108064;28;20196;-70
2021/12/25 03:05:06;;;;;;;2.00;1.30;;;;;;;7.49;77.06;97960.97;5108017;28;20040;-68
2021/12/25 03:07:40;;;;;;;2.05;1.25;;;;;;;7.50;77.06;97952.94;5108021;28;20035;-68
2021/12/25 03:10:14;;;;;;;2.05;1.33;;;;;;;7.42;76.81;97933.31;5108104;28;20051;-68
2021/12/25 03:12:50;;;;;;;3.38;2.03;;;;;;;7.47;76.96;97947.88;5090544;28;20040;-68
2021/12/25 03:15:30;;;;;;;2.65;1.40;;;;;;;7.19;76.83;97895.22;5107804;28;20047;-68
2021/12/25 03:18:02;;;;;;;3.05;1.50;;;;;;;7.47;77.15;97947.88;5108071;28;20288;-68
2021/12/25 03:20:36;;;;;;;2.47;1.40;;;;;;;7.48;77.11;97948.72;5107697;28;20204;-68
2021/12/25 03:23:06;;;;;;;3.15;1.58;;;;;;;7.51;76.59;97953.78;5107719;28;20292;-69
2021/12/25 03:25:35;;;;;;;2.17;1.48;;;;;;;7.20;76.62;97897.75;5107957;28;20059;-67
2021/12/25 03:28:05;;;;;;;2.05;1.80;;;;;;;7.49;77.02;97953.91;5073243;28;20051;-68
2021/12/25 03:30:38;;;;;;;3.35;2.35;;;;;;;6.79;77.43;97831.91;5107306;28;20357;-68
2021/12/25 03:33:17;;;;;;;2.35;1.48;;;;;;;6.04;77.43;97734.03;5107783;28;20351;-68
2021/12/25 03:35:49;;;;;;;2.85;1.50;;;;;;;7.41;77.44;97943.00;5107724;28;20040;-67
2021/12/25 03:38:24;;;;;;;2.25;1.50;;;;;;;7.42;77.14;97942.06;5107337;28;20040;-68
2021/12/25 03:40:56;;;;;;;2.20;1.45;;;;;;;6.87;77.76;97884.97;5107354;28;20043;-69
2021/12/25 03:43:29;;;;;;;2.63;1.50;;;;;;;7.36;77.59;97951.22;5089456;28;20040;-69
2021/12/25 03:46:01;;;;;;;2.47;1.40;;;;;;;7.38;77.95;97954.59;5107255;28;20040;-68
2021/12/25 03:48:59;;;;;;;2.80;1.60;;;;;;;7.39;77.74;97955.44;5107165;28;20047;-68
2021/12/25 04:00:06;;;;;;;3.28;1.70;;;;;;;5.43;77.70;97627.44;5107189;28;20043;-67
2021/12/25 04:02:50;;;;;;;2.60;1.73;;;;;;;7.40;77.84;97954.50;5106932;28;20054;-68
2021/12/25 04:05:26;;;;;;;2.58;1.55;;;;;;;7.38;78.21;97959.84;5106853;28;20040;-67
2021/12/25 04:08:04;;;;;;;3.00;2.00;;;;;;;7.41;77.75;97960.59;5107086;28;20081;-68
2021/12/25 04:10:38;;;;;;;2.20;1.40;;;;;;;7.39;77.92;97955.44;5106660;28;20036;-68
2021/12/25 04:13:11;;;;;;;2.30;1.30;;;;;;;7.41;77.68;97958.81;5107032;28;20284;-67
2021/12/25 04:15:40;;;;;;;2.70;1.70;;;;;;;7.42;78.00;97955.25;5106909;28;20311;-69
2021/12/25 04:18:10;;;;;;;2.40;1.70;;;;;;;6.64;77.76;97819.72;5106663;28;20311;-70
2021/12/25 04:20:41;;;;;;;2.15;1.65;;;;;;;7.42;78.15;97954.41;5089066;28;20040;-68
2021/12/25 04:23:15;;;;;;;3.60;1.52;;;;;;;7.45;77.71;97956.81;5106496;28;20043;-67
2021/12/25 04:25:49;;;;;;;1.75;1.30;;;;;;;7.48;77.60;97959.25;5106765;28;20036;-67
2021/12/25 04:28:33;;;;;;;2.30;1.33;;;;;;;7.47;77.92;97968.13;5106387;28;20044;-67
2021/12/25 04:31:23;;;;;;;3.53;1.73;;;;;;;5.80;77.72;97722.41;5106064;28;20056;-68
2021/12/25 04:42:53;;;;;;;1.80;1.10;;;;;;;7.51;77.54;97959.06;5106283;28;20047;-66
2021/12/25 05:02:48;;;;;;;1.90;1.23;;;;;;;7.54;78.14;97974.69;5105787;28;20089;-66
2021/12/25 05:05:21;;;;;;;2.13;1.30;;;;;;;7.55;77.60;97958.78;5105793;28;20285;-66
2021/12/25 05:07:53;;;;;;;1.42;1.10;;;;;;;2.42;77.69;97126.56;5106001;28;20085;-66
2021/12/25 05:10:26;;;;;;;1.90;1.20;;;;;;;7.45;78.11;97977.91;5106028;28;20056;-66
2021/12/25 05:12:58;;;;;;;2.67;1.52;;;;;;;7.41;78.40;98153.03;5105628;28;20044;-66
2021/12/25 05:15:31;;;;;;;1.88;1.30;;;;;;;7.41;78.69;97979.91;5088016;28;20208;-66
2021/12/25 05:18:01;;;;;;;2.13;1.30;;;;;;;7.43;78.47;97982.44;5088088;28;20115;-66
2021/12/25 05:20:30;;;;;;;2.05;1.20;;;;;;;7.46;78.39;97971.69;5105623;28;20058;-66
2021/12/25 05:23:01;;;;;;;1.90;1.38;;;;;;;6.26;78.27;97793.19;5105861;28;20070;-67
2021/12/25 05:25:31;;;;;;;1.52;1.10;;;;;;;7.44;78.28;97969.16;5105583;28;20085;-67
2021/12/25 05:28:02;;;;;;;2.55;1.38;;;;;;;7.42;78.46;97973.69;5105516;28;20040;-67
2021/12/25 05:30:32;;;;;;;2.25;1.42;;;;;;;5.98;78.69;97737.03;5105475;28;20052;-66
2021/12/25 05:33:01;;;;;;;1.88;1.25;;;;;;;7.38;78.67;97972.19;5105393;28;20118;-68
2021/12/25 05:35:31;;;;;;;2.20;1.50;;;;;;;3.07;78.28;97256.16;5105487;28;20046;-65
2021/12/25 05:38:01;;;;;;;2.05;1.40;;;;;;;7.41;78.42;97984.34;5105582;28;20048;-65
2021/12/25 05:40:31;;;;;;;2.10;1.33;;;;;;;7.41;78.59;97982.53;5105561;28;20101;-66
2021/12/25 05:43:01;;;;;;;1.88;1.30;;;;;;;2.92;77.79;97225.66;5105321;28;20093;-66
2021/12/25 05:45:33;;;;;;;2.33;1.30;;;;;;;7.43;78.59;97985.94;5105606;28;20029;-66
2021/12/25 05:48:02;;;;;;;2.10;1.58;;;;;;;7.42;78.46;97984.22;5106127;28;20047;-67
2021/12/25 05:50:32;;;;;;;2.33;1.50;;;;;;;7.38;78.69;97980.94;5105614;28;20036;-67
2021/12/25 05:53:02;;;;;;;2.25;1.38;;;;;;;7.38;78.94;97988.84;5105235;28;20044;-67
2021/12/25 05:55:33;;;;;;;2.17;1.55;;;;;;;7.42;78.50;97986.03;5087905;28;20042;-66
2021/12/25 05:58:03;;;;;;;3.72;1.52;;;;;;;7.43;78.48;98008.81;5105994;28;20064;-67
2021/12/25 06:00:35;;;;;;;2.97;2.05;;;;;;;7.43;78.67;97990.34;5105179;28;20103;-67
2021/12/25 06:03:03;;;;;;;3.22;1.60;;;;;;;7.45;78.46;97997.22;5105159;28;20051;-66
2021/12/25 06:05:33;;;;;;;3.00;1.85;;;;;;;7.46;78.14;97992.78;5105155;28;20103;-66
2021/12/25 06:08:03;;;;;;;3.05;2.03;;;;;;;7.47;78.30;97994.47;5105235;28;20064;-67
2021/12/25 06:10:33;;;;;;;3.13;1.80;;;;;;;7.43;78.68;97995.63;5105183;28;20089;-67
2021/12/25 06:13:03;;;;;;;3.15;2.05;;;;;;;7.38;78.98;98003.81;5105367;28;20108;-68
2021/12/25 06:15:34;;;;;;;3.33;1.83;;;;;;;7.39;79.22;98010.78;5105440;28;20040;-67
2021/12/25 06:18:04;;;;;;;2.67;1.90;;;;;;;7.37;79.18;98004.75;5108320;28;20284;-67
2021/12/25 06:20:33;;;;;;;3.10;2.08;;;;;;;7.32;79.95;98007.66;5109135;28;20058;-67
2021/12/25 06:23:04;;;;;;;3.53;2.10;;;;;;;5.77;79.82;97759.38;5108788;28;20051;-67
2021/12/25 06:25:34;;;;;;;4.25;2.45;;;;;;;7.30;79.91;98004.28;5091424;28;20134;-67
2021/12/25 06:28:04;;;;;;;3.25;2.35;;;;;;;7.25;79.65;98001.09;5109098;28;20235;-67
2021/12/25 06:30:37;;;;;;;3.53;2.33;;;;;;;7.28;79.54;98010.59;5108591;28;20228;-67
2021/12/25 06:33:09;;;;;;;17.00;12.20;;;;;;;7.25;80.19;98013.41;5108828;28;20047;-67
2021/12/25 06:35:39;;;;;;;17.40;12.60;;;;;;;7.18;80.58;98023.50;5108624;28;20074;-68
2021/12/25 06:38:09;;;;;;;15.45;11.43;;;;;;;7.12;80.20;98025.66;5108776;28;20082;-67
2021/12/25 06:40:39;;;;;;;18.60;13.35;;;;;;;7.02;80.13;98025.38;5108843;28;20141;-67
2021/12/25 06:43:09;;;;;;;13.63;9.20;;;;;;;5.89;79.73;97855.94;5108772;28;20051;-67
2021/12/25 06:45:41;;;;;;;21.80;16.70;;;;;;;6.58;79.57;97981.53;5108702;28;20101;-67
2021/12/25 06:48:09;;;;;;;9.52;7.28;;;;;;;6.82;79.38;98025.75;5108233;28;20101;-67
2021/12/25 06:50:40;;;;;;;8.32;6.25;;;;;;;6.79;79.03;98032.03;5108171;28;20040;-67
2021/12/25 06:53:10;;;;;;;9.85;7.60;;;;;;;6.72;79.12;98039.47;5108138;28;20044;-67
2021/12/25 06:55:40;;;;;;;7.78;5.90;;;;;;;2.00;78.50;97261.34;5108398;28;20047;-67
2021/12/25 06:58:10;;;;;;;5.60;4.30;;;;;;;6.61;78.80;98043.66;5108341;28;20047;-67
2021/12/25 07:00:41;;;;;;;5.55;4.22;;;;;;;6.53;78.47;98041.50;5108366;28;20111;-67
2021/12/25 07:03:10;;;;;;;6.13;5.07;;;;;;;6.48;78.57;98040.91;5107973;28;20115;-67
2021/12/25 07:05:40;;;;;;;6.28;4.53;;;;;;;6.39;78.15;98044.94;5108467;28;20039;-67
2021/12/25 07:08:11;;;;;;;8.93;6.18;;;;;;;6.36;78.13;98046.91;5107854;28;20059;-67
2021/12/25 07:10:41;;;;;;;11.80;7.43;;;;;;;6.32;77.95;98045.41;5108527;28;20040;-67
2021/12/25 07:13:16;;;;;;;7.15;5.63;;;;;;;6.28;78.05;98050.00;5107950;28;20047;-67
2021/12/25 07:15:49;;;;;;;8.57;4.53;;;;;;;6.19;78.14;98053.16;5107606;28;20040;-67
2021/12/25 07:18:22;;;;;;;6.07;3.65;;;;;;;6.08;77.76;98053.78;5107927;28;20047;-67
2021/12/25 07:20:54;;;;;;;7.22;3.88;;;;;;;5.98;77.63;98052.59;5107639;28;20040;-67
2021/12/25 07:23:26;;;;;;;5.35;3.35;;;;;;;4.39;77.47;97791.91;5107633;28;20058;-67
2021/12/25 07:25:59;;;;;;;4.53;3.42;;;;;;;5.33;77.67;97951.22;5107537;28;20062;-67
2021/12/25 07:28:31;;;;;;;5.30;3.60;;;;;;;5.94;77.71;98055.50;5107698;28;20081;-67
2021/12/25 07:31:06;;;;;;;6.70;3.70;;;;;;;5.92;77.53;98063.47;5107112;28;20059;-67
2021/12/25 07:33:40;;;;;;;5.28;3.90;;;;;;;5.91;77.36;98067.03;5107154;28;20090;-67
2021/12/25 07:36:13;;;;;;;6.72;4.60;;;;;;;5.79;77.26;98070.38;5107334;28;20086;-67
2021/12/25 07:38:46;;;;;;;5.30;3.47;;;;;;;5.77;77.54;98074.88;5107308;28;20040;-67
2021/12/25 07:41:18;;;;;;;4.65;3.60;;;;;;;5.76;77.61;98075.78;5107487;28;20058;-67
2021/12/25 07:43:50;;;;;;;5.95;3.90;;;;;;;5.76;77.42;98105.56;5107181;28;20086;-67
2021/12/25 07:46:24;;;;;;;6.43;3.95;;;;;;;5.74;77.46;98077.66;5107137;28;20234;-67
2021/12/25 07:48:57;;;;;;;5.53;4.20;;;;;;;5.72;77.17;98079.53;5107315;28;20044;-67
2021/12/25 07:51:29;;;;;;;5.30;4.00;;;;;;;5.69;77.09;98088.44;5107033;28;20152;-67
2021/12/25 07:54:01;;;;;;;5.68;4.75;;;;;;;5.68;76.78;98093.78;5106883;28;20083;-67
2021/12/25 07:56:33;;;;;;;5.88;4.15;;;;;;;5.64;76.75;98095.72;5106928;28;20296;-67
2021/12/25 07:59:06;;;;;;;4.75;3.80;;;;;;;5.67;76.71;98097.34;5106800;28;20062;-67
2021/12/25 08:01:40;;;;;;;5.57;4.20;;;;;;;5.64;76.64;98100.13;5107081;28;20048;-67
2021/12/25 08:04:12;;;;;;;5.85;4.40;;;;;;;5.56;76.48;98099.69;5089460;28;20048;-67
2021/12/25 08:06:45;;;;;;;7.15;4.82;;;;;;;5.54;76.47;98097.16;5107010;28;20040;-67
2021/12/25 08:09:27;;;;;;;6.05;4.57;;;;;;;5.51;76.46;98094.69;5106655;28;20040;-67
2021/12/25 08:12:01;;;;;;;7.18;5.45;;;;;;;5.51;76.43;98101.75;5106658;28;20040;-67
2021/12/25 08:14:34;;;;;;;5.67;4.10;;;;;;;3.71;76.25;97813.00;5106563;28;20243;-67
2021/12/25 08:17:07;;;;;;;11.57;9.52;;;;;;;5.39;76.42;98106.72;5106781;28;20048;-67
2021/12/25 08:19:40;;;;;;;14.93;10.38;;;;;;;5.37;76.38;98113.00;5106471;28;20051;-67
2021/12/25 08:22:12;;;;;;;19.27;13.38;;;;;;;5.34;76.46;98115.78;5088676;28;20048;-67
2021/12/25 08:24:46;;;;;;;19.48;9.25;;;;;;;5.28;76.32;98119.59;5106755;28;20086;-67
2021/12/25 08:27:18;;;;;;;11.70;7.53;;;;;;;5.29;76.36;98123.06;5106495;28;20048;-67
2021/12/25 08:29:51;;;;;;;9.30;7.05;;;;;;;5.27;76.05;98123.16;5106085;28;20105;-67
2021/12/25 08:32:25;;;;;;;6.93;5.93;;;;;;;5.26;75.95;98125.84;5106394;28;20246;-67
2021/12/25 08:34:57;;;;;;;9.80;7.45;;;;;;;5.23;76.03;98121.63;5106476;28;20085;-67
2021/12/25 08:37:31;;;;;;;7.53;5.50;;;;;;;5.24;76.14;98133.81;5106430;28;20239;-67
2021/12/25 08:40:05;;;;;;;9.00;5.85;;;;;;;5.18;76.09;98128.88;5105934;28;20141;-67
2021/12/25 08:42:44;;;;;;;7.85;5.43;;;;;;;5.17;76.24;98126.34;5106328;28;20185;-67
2021/12/25 08:45:40;;;;;;;8.50;5.95;;;;;;;5.17;76.17;98132.44;5106052;28;20039;-67
2021/12/25 08:48:15;;;;;;;8.68;6.97;;;;;;;5.15;76.24;98133.44;5088301;28;20040;-67
2021/12/25 08:50:49;;;;;;;8.93;5.90;;;;;;;5.15;76.21;98125.56;5105966;28;20047;-67
2021/12/25 08:53:24;;;;;;;8.40;6.05;;;;;;;5.01;76.27;98123.66;5088428;28;20044;-67
2021/12/25 08:55:57;;;;;;;7.95;6.40;;;;;;;4.95;76.65;98116.13;5105858;28;20036;-67
2021/12/25 08:58:31;;;;;;;12.63;8.70;;;;;;;4.90;76.44;98120.75;5105986;28;20043;-66
2021/12/25 09:01:07;;;;;;;8.77;6.80;;;;;;;4.87;76.47;98121.72;5105896;28;20056;-67
2021/12/25 09:03:40;;;;;;;8.57;6.75;;;;;;;3.29;76.39;97860.56;5105960;28;20044;-68
2021/12/25 09:06:13;;;;;;;8.10;6.13;;;;;;;4.75;76.60;98120.59;5105677;28;20181;-67
2021/12/25 09:08:45;;;;;;;7.35;5.57;;;;;;;4.80;76.76;98126.44;5105628;28;20231;-66
2021/12/25 09:11:20;;;;;;;7.75;5.57;;;;;;;4.85;77.00;98136.72;5105696;28;20040;-66
2021/12/25 09:13:53;;;;;;;8.27;6.35;;;;;;;4.90;76.43;98129.47;5105631;28;20082;-67
2021/12/25 09:16:25;;;;;;;10.13;7.85;;;;;;;4.89;76.76;98153.16;5105247;28;20177;-67
2021/12/25 09:18:59;;;;;;;10.13;8.63;;;;;;;4.80;76.21;98117.72;5105283;28;20089;-66
2021/12/25 09:21:31;;;;;;;9.88;7.10;;;;;;;4.53;76.12;98096.34;5105400;28;20296;-67
2021/12/25 09:24:03;;;;;;;6.43;4.93;;;;;;;4.76;76.12;98130.16;5105479;28;20047;-67
2021/12/25 09:26:36;;;;;;;7.80;5.75;;;;;;;3.10;76.05;97875.47;5105538;28;20040;-67
2021/12/25 09:29:08;;;;;;;7.57;5.82;;;;;;;4.72;76.21;98127.75;5105623;28;20044;-67
2021/12/25 09:31:41;;;;;;;9.35;7.38;;;;;;;4.65;76.23;98129.84;5105484;28;20044;-67
2021/12/25 09:34:14;;;;;;;7.40;5.55;;;;;;;4.61;76.22;98143.22;5087837;28;20086;-67
2021/12/25 09:36:46;;;;;;;7.35;5.78;;;;;;;4.65;76.63;98145.59;5105564;28;20249;-67
2021/12/25 09:39:21;;;;;;;12.68;6.03;;;;;;;4.68;76.49;98137.56;5105235;28;20296;-67
2021/12/25 09:41:53;;;;;;;7.68;5.70;;;;;;;4.67;76.30;98133.25;5087952;28;20093;-67
2021/12/25 09:44:26;;;;;;;7.78;5.53;;;;;;;4.65;76.20;98136.88;5087928;28;20048;-67
2021/12/25 09:46:58;;;;;;;7.00;5.60;;;;;;;4.54;76.10;98136.56;5105193;28;20295;-67
2021/12/25 09:49:32;;;;;;;8.90;5.13;;;;;;;4.46;75.90;98136.94;5105061;28;20047;-67
2021/12/25 09:52:05;;;;;;;7.53;4.80;;;;;;;4.42;75.83;98138.88;5107026;28;20048;-67
2021/12/25 09:54:37;;;;;;;5.18;4.35;;;;;;;4.33;75.34;98147.19;5109051;28;20257;-67
2021/12/25 09:57:10;;;;;;;6.53;3.90;;;;;;;4.17;75.21;98154.94;5091462;28;20044;-67
2021/12/25 09:59:42;;;;;;;4.97;3.97;;;;;;;4.07;75.10;98158.06;5109155;28;20050;-67
2021/12/25 10:02:17;;;;;;;5.07;3.65;;;;;;;4.11;75.50;98159.63;5109415;28;20040;-66
2021/12/25 10:04:53;;;;;;;6.40;3.85;;;;;;;4.05;75.27;98154.66;5109279;28;20047;-67
2021/12/25 10:07:28;;;;;;;5.28;3.58;;;;;;;4.00;75.51;98151.41;5109273;28;20085;-67
2021/12/25 10:10:05;;;;;;;4.80;3.78;;;;;;;3.96;75.43;98158.59;5108984;28;20063;-66
2021/12/25 10:12:42;;;;;;;6.93;4.72;;;;;;;3.95;75.65;98145.53;5108905;28;20048;-67
2021/12/25 10:15:18;;;;;;;5.93;4.72;;;;;;;3.92;75.75;98141.28;5109003;28;20044;-67
2021/12/25 10:17:54;;;;;;;7.45;6.03;;;;;;;3.84;75.88;98140.81;5108815;28;20181;-66
2021/12/25 10:20:30;;;;;;;6.30;4.35;;;;;;;3.78;75.94;98141.94;5109121;28;20051;-66
2021/12/25 10:23:07;;;;;;;6.18;4.28;;;;;;;3.86;76.10;98144.22;5108757;28;20044;-67
2021/12/25 10:25:46;;;;;;;6.68;5.15;;;;;;;3.64;75.99;98091.13;5091721;28;20094;-67
2021/12/25 10:28:17;;;;;;;7.53;5.97;;;;;;;3.90;75.83;98137.91;5109044;28;20302;-66
2021/12/25 10:30:51;;;;;;;8.60;6.65;;;;;;;3.75;75.46;98136.84;5108419;28;20125;-68
2021/12/25 10:33:41;;;;;;;8.20;5.88;;;;;;;3.73;75.72;98127.38;5091060;28;20113;-67
2021/12/25 10:36:26;;;;;;;8.27;6.07;;;;;;;2.79;76.05;97989.44;5108691;28;20247;-67
2021/12/25 10:39:01;;;;;;;11.18;6.53;;;;;;;3.78;76.41;98130.63;5108905;28;20081;-67
2021/12/25 10:41:37;;;;;;;7.45;4.97;;;;;;;0.92;75.91;97658.16;5108686;28;20041;-68
2021/12/25 10:44:15;;;;;;;6.82;4.68;;;;;;;3.84;76.12;98143.44;5092064;28;20043;-67
2021/12/25 10:46:54;;;;;;;5.97;4.72;;;;;;;3.05;75.94;98031.91;5108420;28;20048;-66
2021/12/25 10:49:29;;;;;;;5.00;4.13;;;;;;;3.88;75.88;98134.50;5108490;28;20044;-66
2021/12/25 10:52:13;;;;;;;5.60;4.53;;;;;;;3.93;75.78;98124.66;5108509;28;20080;-68
2021/12/25 10:54:47;;;;;;;5.30;4.30;;;;;;;3.92;75.75;98128.19;5108543;28;20055;-68
2021/12/25 10:57:34;;;;;;;6.65;5.30;;;;;;;3.84;75.39;98128.56;5108324;28;20044;-68
2021/12/25 11:00:10;;;;;;;5.82;4.32;;;;;;;1.96;75.57;97865.94;5108193;28;20044;-68
2021/12/25 11:02:45;;;;;;;7.15;5.45;;;;;;;3.84;75.60;98123.31;5090309;28;20043;-67
2021/12/25 11:05:19;;;;;;;;;;;;;;;3.78;75.46;98128.00;5108595;28;20043;-67
2021/12/25 11:08:05;;;;;;;8.07;5.80;;;;;;;3.78;75.42;98128.84;5090266;28;19916;-67
2021/12/25 11:10:46;;;;;;;9.20;7.45;;;;;;;3.66;75.50;98128.56;5090194;28;20069;-66
2021/12/25 11:13:20;;;;;;;5.65;5.13;;;;;;;3.61;75.40;98135.81;5107886;28;20044;-66
2021/12/25 11:15:52;;;;;;;8.45;4.78;;;;;;;3.58;75.69;98141.19;5090026;28;20048;-66
2021/12/25 11:18:23;;;;;;;6.70;5.03;;;;;;;3.60;75.80;98145.44;5107925;28;20047;-66
2021/12/25 11:20:56;;;;;;;6.15;4.88;;;;;;;3.62;75.79;98145.34;5108016;28;20185;-67
2021/12/25 11:23:27;;;;;;;5.50;4.88;;;;;;;3.70;75.65;98151.09;5090086;28;20056;-66
2021/12/25 11:26:01;;;;;;;6.95;5.75;;;;;;;3.31;75.36;98094.38;5090088;28;20040;-66
2021/12/25 11:28:33;;;;;;;7.70;6.55;;;;;;;3.66;75.42;98147.75;5107651;28;20085;-66
2021/12/25 11:31:06;;;;;;;7.53;6.13;;;;;;;3.64;75.38;98143.50;5107426;28;20110;-66
2021/12/25 11:33:39;;;;;;;7.90;6.53;;;;;;;3.63;75.29;98139.19;5107576;28;20230;-67
2021/12/25 11:36:12;;;;;;;7.63;5.60;;;;;;;3.65;75.39;98134.72;5107558;28;20036;-66
2021/12/25 11:38:45;;;;;;;7.55;5.20;;;;;;;3.58;75.21;98143.78;5107338;28;20040;-66
2021/12/25 11:41:18;;;;;;;8.15;5.22;;;;;;;3.61;75.23;98125.31;5107146;28;20036;-66
2021/12/25 11:43:51;;;;;;;6.05;4.85;;;;;;;3.29;75.39;98063.94;5107271;28;20044;-66
2021/12/25 11:46:38;;;;;;;8.63;5.35;;;;;;;3.56;75.45;98138.63;5106948;28;20044;-66
2021/12/25 11:49:13;;;;;;;5.28;4.65;;;;;;;3.63;75.39;98120.84;5107343;28;20081;-66
2021/12/25 11:51:46;;;;;;;7.22;5.32;;;;;;;3.53;75.09;98129.16;5107087;28;20085;-66
2021/12/25 11:54:57;;;;;;;6.30;4.75;;;;;;;3.52;74.91;98127.44;5106790;28;20035;-66
2021/12/25 11:57:50;;;;;;;7.05;5.22;;;;;;;1.57;74.48;97809.28;5107153;28;20040;-66
2021/12/25 12:00:36;;;;;;;7.50;4.80;;;;;;;3.42;74.72;98133.19;5106797;28;20044;-66
2021/12/25 12:03:10;;;;;;;6.60;5.53;;;;;;;3.41;74.90;98126.25;5106732;28;20093;-66
2021/12/25 12:05:49;;;;;;;6.40;5.35;;;;;;;3.36;74.62;98141.31;5106937;28;20157;-66
2021/12/25 12:08:21;;;;;;;8.05;5.57;;;;;;;3.36;74.79;98142.16;5106623;28;20185;-66
2021/12/25 12:11:00;;;;;;;6.93;5.35;;;;;;;3.31;74.59;98130.19;5106763;28;20040;-66
2021/12/25 12:13:34;;;;;;;9.48;6.15;;;;;;;3.28;74.86;98133.81;5106635;28;20081;-68
2021/12/25 12:16:06;;;;;;;7.33;5.43;;;;;;;3.34;74.91;98120.44;5088692;28;20055;-66
2021/12/25 12:18:41;;;;;;;7.40;5.93;;;;;;;3.26;74.72;98109.44;5106799;28;20070;-67
2021/12/25 12:21:38;;;;;;;6.50;5.25;;;;;;;3.27;74.29;98121.63;5106638;28;20090;-66
2021/12/25 12:24:41;;;;;;;6.78;5.07;;;;;;;3.27;74.64;98108.53;5106717;28;20081;-67
2021/12/25 12:27:31;;;;;;;6.68;5.93;;;;;;;3.22;74.15;98109.66;5106506;28;20276;-65
2021/12/25 12:30:05;;;;;;;8.18;6.18;;;;;;;3.13;74.56;98117.00;5106126;28;20081;-66
2021/12/25 12:32:44;;;;;;;6.37;5.67;;;;;;;3.12;74.66;98114.47;5106505;28;20085;-66
2021/12/25 12:35:34;;;;;;;7.75;5.50;;;;;;;3.10;74.22;98113.69;5106266;28;20062;-66
2021/12/25 12:38:31;;;;;;;7.38;5.93;;;;;;;1.76;74.28;97903.41;5106324;28;20292;-66
2021/12/25 12:41:19;;;;;;;6.85;5.75;;;;;;;3.15;74.60;98130.88;5088361;28;20089;-66
2021/12/25 12:44:06;;;;;;;5.63;4.75;;;;;;;3.19;74.29;98132.44;5088624;28;20059;-66
2021/12/25 12:47:12;;;;;;;7.07;4.95;;;;;;;3.14;74.24;98141.41;5106090;28;20040;-65
2021/12/25 12:49:59;;;;;;;7.82;5.97;;;;;;;3.08;74.28;98139.06;5106232;28;20040;-66
2021/12/25 12:52:35;;;;;;;11.73;7.18;;;;;;;3.07;74.63;98140.84;5106215;28;20043;-66
2021/12/25 12:55:25;;;;;;;7.03;5.43;;;;;;;3.07;74.46;98143.47;5105742;28;20085;-66
2021/12/25 12:58:08;;;;;;;8.73;5.68;;;;;;;3.04;73.85;98142.75;5106114;28;20048;-66
2021/12/25 13:00:45;;;;;;;7.38;5.45;;;;;;;2.43;74.15;98061.69;5105557;28;20044;-66
2021/12/25 13:03:18;;;;;;;8.57;6.05;;;;;;;2.90;74.64;98145.97;5105767;28;20044;-66
2021/12/25 13:05:55;;;;;;;8.60;6.15;;;;;;;2.87;74.32;98146.94;5105673;28;20089;-66
2021/12/25 13:08:30;;;;;;;7.57;5.85;;;;;;;2.79;74.53;98150.81;5088071;28;20103;-66
2021/12/25 13:11:11;;;;;;;8.45;5.97;;;;;;;2.83;74.47;98158.47;5105663;28;20066;-66